createdAt,value
2023-04-07T00:01:26.656Z,98272.94
2023-04-07T00:03:31.656Z,98272.19
2023-04-07T00:05:39.359Z,98273.94
2023-04-07T00:07:52.937Z,98272.19
2023-04-07T00:10:01.626Z,98269.53
2023-04-07T00:12:07.384Z,98274.78
2023-04-07T00:14:12.284Z,98275.63
2023-04-07T00:16:17.798Z,98275.88
2023-04-07T00:18:22.765Z,98283.25
2023-04-07T00:20:27.791Z,98285.72
2023-04-07T00:22:35.249Z,98277.38
2023-04-07T00:24:40.208Z,98283.47
2023-04-07T00:26:45.148Z,98283.72
2023-04-07T00:28:50.094Z,98286.38
2023-04-07T00:30:55.089Z,98284.59
2023-04-07T00:33:00.233Z,98287.97
2023-04-07T00:35:05.245Z,98281.78
2023-04-07T00:37:10.135Z,98277.41
2023-04-07T00:39:17.649Z,98272.16
2023-04-07T00:41:23.846Z,98270.34
2023-04-07T00:43:28.814Z,98251.31
2023-04-07T00:45:34.201Z,98250.50
2023-04-07T00:47:39.495Z,98249.66
2023-04-07T00:49:44.198Z,98248.88
2023-04-07T00:51:49.741Z,98245.44
2023-04-07T00:53:54.848Z,98242.94
2023-04-07T00:56:02.467Z,98248.09
2023-04-07T00:58:07.589Z,98244.56
2023-04-07T01:00:12.883Z,98243.66
2023-04-07T01:02:22.590Z,98243.56
2023-04-07T01:04:35.554Z,98235.72
2023-04-07T01:06:47.037Z,98239.97
2023-04-07T01:08:57.526Z,98230.44
2023-04-07T01:11:11.215Z,98229.47
2023-04-07T01:13:25.818Z,98230.25
2023-04-07T01:15:38.010Z,98236.22
2023-04-07T01:17:48.485Z,98228.41
2023-04-07T01:19:59.212Z,98226.69
2023-04-07T01:22:06.717Z,98224.88
2023-04-07T01:24:37.808Z,98226.47
2023-04-07T01:26:51.703Z,98226.34
2023-04-07T01:29:22.898Z,98227.94
2023-04-07T01:31:32.341Z,98227.00
2023-04-07T01:33:39.099Z,98224.38
2023-04-07T01:35:45.778Z,98230.31
2023-04-07T01:37:52.706Z,98224.22
2023-04-07T01:39:57.794Z,98224.31
2023-04-07T01:42:03.862Z,98229.63
2023-04-07T01:44:11.179Z,98219.44
2023-04-07T01:46:16.520Z,98216.94
2023-04-07T01:48:24.792Z,98211.81
2023-04-07T01:50:30.320Z,98211.88
2023-04-07T01:52:36.452Z,98213.66
2023-04-07T01:54:42.620Z,98211.34
2023-04-07T01:56:47.680Z,98207.16
2023-04-07T01:58:52.611Z,98205.41
2023-04-07T02:01:00.618Z,98198.44
2023-04-07T02:03:08.754Z,98202.69
2023-04-07T02:05:20.933Z,98199.13
2023-04-07T02:07:32.554Z,98198.06
2023-04-07T02:09:41.649Z,98195.34
2023-04-07T02:11:48.959Z,98191.81
2023-04-07T02:13:57.393Z,98187.53
2023-04-07T02:16:04.891Z,98195.22
2023-04-07T02:18:13.212Z,98188.34
2023-04-07T02:20:23.249Z,98195.25
2023-04-07T02:22:29.060Z,98197.03
2023-04-07T02:24:33.985Z,98196.13
2023-04-07T02:26:39.654Z,98195.16
2023-04-07T02:28:46.481Z,98185.66
2023-04-07T02:30:51.590Z,98194.19
2023-04-07T02:32:56.752Z,98190.00
2023-04-07T02:35:01.784Z,98198.16
2023-04-07T02:37:09.286Z,98191.63
2023-04-07T02:39:14.243Z,98191.06
2023-04-07T02:41:19.561Z,98192.06
2023-04-07T02:43:25.639Z,98189.63
2023-04-07T02:45:30.503Z,98190.59
2023-04-07T02:47:35.979Z,98200.84
2023-04-07T02:49:40.611Z,98194.97
2023-04-07T02:51:47.123Z,98199.66
2023-04-07T02:53:54.844Z,98196.50
2023-04-07T02:55:59.941Z,98192.94
2023-04-07T02:58:04.855Z,98197.88
2023-04-07T03:00:19.400Z,98196.78
2023-04-07T03:02:44.664Z,98194.16
2023-04-07T03:04:50.454Z,98197.38
2023-04-07T03:06:56.689Z,98192.09
2023-04-07T03:09:04.251Z,98193.75
2023-04-07T03:11:09.260Z,98185.91
2023-04-07T03:13:16.653Z,98185.78
2023-04-07T03:15:21.923Z,98191.06
2023-04-07T03:17:28.835Z,98194.66
2023-04-07T03:19:33.757Z,98184.53
2023-04-07T03:21:40.337Z,98188.97
2023-04-07T03:23:45.920Z,98189.00
2023-04-07T03:25:53.445Z,98191.53
2023-04-07T03:27:58.602Z,98187.19
2023-04-07T03:30:08.882Z,98189.75
2023-04-07T03:32:13.877Z,98193.09
2023-04-07T03:34:18.941Z,98188.91
2023-04-07T03:36:24.610Z,98186.34
2023-04-07T03:38:29.656Z,98177.75
2023-04-07T03:40:39.177Z,98182.84
2023-04-07T03:42:46.915Z,98179.50
2023-04-07T03:44:52.788Z,98182.81
2023-04-07T03:46:58.063Z,98173.19
2023-04-07T03:49:04.605Z,98181.59
2023-04-07T03:51:11.210Z,98176.31
2023-04-07T03:53:21.464Z,98176.13
2023-04-07T03:55:27.590Z,98175.22
2023-04-07T03:57:37.252Z,98180.22
2023-04-07T03:59:45.024Z,98181.91
2023-04-07T04:01:50.022Z,98181.06
2023-04-07T04:03:55.431Z,98172.44
2023-04-07T04:06:06.033Z,98170.69
2023-04-07T04:08:10.777Z,98171.66
2023-04-07T04:10:18.104Z,98163.91
2023-04-07T04:12:26.640Z,98176.75
2023-04-07T04:14:44.135Z,98167.28
2023-04-07T04:16:50.956Z,98166.31
2023-04-07T04:19:09.379Z,98171.31
2023-04-07T04:21:14.265Z,98166.97
2023-04-07T04:23:21.448Z,98174.66
2023-04-07T04:25:30.271Z,98171.22
2023-04-07T04:27:36.212Z,98174.63
2023-04-07T04:29:54.134Z,98172.84
2023-04-07T04:32:09.252Z,98168.44
2023-04-07T04:34:13.910Z,98168.50
2023-04-07T04:36:20.720Z,98163.34
2023-04-07T04:38:25.624Z,98172.63
2023-04-07T04:40:41.989Z,98166.53
2023-04-07T04:42:46.943Z,98164.47
2023-04-07T04:44:56.572Z,98164.53
2023-04-07T04:47:02.620Z,98168.66
2023-04-07T04:49:09.885Z,98166.81
2023-04-07T04:51:14.790Z,98164.41
2023-04-07T04:53:20.209Z,98163.50
2023-04-07T04:55:34.187Z,98164.25
2023-04-07T04:57:40.303Z,98174.44
2023-04-07T04:59:49.999Z,98168.28
2023-04-07T05:01:57.832Z,98178.47
2023-04-07T05:04:03.074Z,98172.38
2023-04-07T05:06:09.346Z,98175.72
2023-04-07T05:08:14.508Z,98173.91
2023-04-07T05:10:19.568Z,98177.22
2023-04-07T05:12:28.162Z,98170.16
2023-04-07T05:14:38.098Z,98167.50
2023-04-07T05:16:46.197Z,98163.09
2023-04-07T05:18:59.242Z,98166.41
2023-04-07T05:21:05.004Z,98162.88
2023-04-07T05:23:13.017Z,98171.28
2023-04-07T05:25:19.225Z,98165.13
2023-04-07T05:27:26.543Z,98163.25
2023-04-07T05:29:34.980Z,98157.88
2023-04-07T05:31:41.476Z,98162.22
2023-04-07T05:33:50.789Z,98163.00
2023-04-07T05:35:59.013Z,98163.81
2023-04-07T05:38:04.189Z,98163.72
2023-04-07T05:40:10.807Z,98166.28
2023-04-07T05:42:16.186Z,98166.16
2023-04-07T05:44:23.953Z,98164.34
2023-04-07T05:46:29.423Z,98171.25
2023-04-07T05:48:36.091Z,98154.81
2023-04-07T05:50:41.835Z,98158.09
2023-04-07T05:52:53.120Z,98159.78
2023-04-07T05:55:03.984Z,98158.84
2023-04-07T05:57:09.047Z,98163.13
2023-04-07T05:59:16.746Z,98165.63
2023-04-07T06:01:22.999Z,98162.94
2023-04-07T06:03:28.756Z,98164.41
2023-04-07T06:05:48.904Z,98165.88
2023-04-07T06:07:59.005Z,98163.13
2023-04-07T06:10:05.812Z,98166.44
2023-04-07T06:12:14.964Z,98171.59
2023-04-07T06:14:20.965Z,98166.47
2023-04-07T06:16:26.012Z,98171.63
2023-04-07T06:18:43.354Z,98158.66
2023-04-07T06:20:48.244Z,98159.59
2023-04-07T06:22:53.129Z,98165.44
2023-04-07T06:25:01.084Z,98170.31
2023-04-07T06:27:06.899Z,98171.81
2023-04-07T06:29:14.768Z,98168.84
2023-04-07T06:31:20.396Z,98172.72
2023-04-07T06:33:25.959Z,98170.69
2023-04-07T06:35:32.410Z,98166.25
2023-04-07T06:37:37.851Z,98178.09
2023-04-07T06:39:46.019Z,98168.44
2023-04-07T06:41:55.028Z,98168.31
2023-04-07T06:44:00.023Z,98164.53
2023-04-07T06:46:05.007Z,98162.56
2023-04-07T06:48:11.230Z,98153.69
2023-04-07T06:50:17.902Z,98163.06
2023-04-07T06:52:25.155Z,98157.06
2023-04-07T06:54:30.092Z,98156.88
2023-04-07T06:56:35.022Z,98154.78
2023-04-07T06:58:43.664Z,98155.28
2023-04-07T07:00:48.576Z,98157.66
2023-04-07T07:02:55.734Z,98151.50
2023-04-07T07:05:00.844Z,98152.38
2023-04-07T07:07:05.884Z,98147.28
2023-04-07T07:09:10.783Z,98149.84
2023-04-07T07:11:15.827Z,98148.69
2023-04-07T07:13:23.495Z,98145.81
2023-04-07T07:15:31.078Z,98145.56
2023-04-07T07:17:36.318Z,98141.72
2023-04-07T07:19:41.195Z,98143.00
2023-04-07T07:21:46.265Z,98144.69
2023-04-07T07:23:51.265Z,98151.31
2023-04-07T07:25:56.135Z,98159.88
2023-04-07T07:28:01.467Z,98155.75
2023-04-07T07:30:06.213Z,98154.94
2023-04-07T07:32:13.701Z,98149.63
2023-04-07T07:34:18.600Z,98149.84
2023-04-07T07:36:23.563Z,98161.13
2023-04-07T07:38:28.490Z,98145.00
2023-04-07T07:40:33.625Z,98154.28
2023-04-07T07:42:38.491Z,98144.50
2023-04-07T07:44:43.413Z,98150.38
2023-04-07T07:46:48.376Z,98147.13
2023-04-07T07:48:56.233Z,98152.94
2023-04-07T07:51:01.130Z,98157.25
2023-04-07T07:53:06.222Z,98154.56
2023-04-07T07:55:12.082Z,98156.69
2023-04-07T07:57:16.974Z,98152.81
2023-04-07T07:59:21.839Z,98143.53
2023-04-07T08:01:27.272Z,98153.59
2023-04-07T08:03:32.705Z,98147.53
2023-04-07T08:05:40.924Z,98144.91
2023-04-07T08:07:47.401Z,98148.66
2023-04-07T08:09:52.614Z,98150.06
2023-04-07T08:11:57.516Z,98144.66
2023-04-07T08:14:02.541Z,98145.59
2023-04-07T08:16:10.685Z,98145.09
2023-04-07T08:18:15.731Z,98148.38
2023-04-07T08:20:21.167Z,98147.56
2023-04-07T08:22:28.775Z,98146.28
2023-04-07T08:24:34.464Z,98143.94
2023-04-07T08:26:39.422Z,98144.75
2023-04-07T08:28:44.330Z,98144.97
2023-04-07T08:30:49.409Z,98143.72
2023-04-07T08:32:55.230Z,98142.66
2023-04-07T08:35:00.206Z,98145.72
2023-04-07T08:37:05.156Z,98142.88
2023-04-07T08:39:12.700Z,98144.97
2023-04-07T08:41:27.522Z,98137.81
2023-04-07T08:43:33.208Z,98141.03
2023-04-07T08:45:42.371Z,98137.72
2023-04-07T08:47:49.518Z,98141.31
2023-04-07T08:49:56.025Z,98134.22
2023-04-07T08:52:05.362Z,98143.25
2023-04-07T08:54:16.241Z,98143.22
2023-04-07T08:56:22.186Z,98141.31
2023-04-07T08:58:27.542Z,98146.72
2023-04-07T09:00:32.833Z,98144.94
2023-04-07T09:02:38.210Z,98148.03
2023-04-07T09:04:43.379Z,98143.66
2023-04-07T09:06:48.321Z,98141.00
2023-04-07T09:08:54.211Z,98150.97
2023-04-07T09:11:02.773Z,98149.31
2023-04-07T09:13:07.869Z,98153.22
2023-04-07T09:15:13.463Z,98143.41
2023-04-07T09:17:18.651Z,98141.16
2023-04-07T09:19:23.600Z,98142.06
2023-04-07T09:21:29.479Z,98140.50
2023-04-07T09:23:36.317Z,98134.44
2023-04-07T09:25:41.377Z,98136.91
2023-04-07T09:28:01.039Z,98136.88
2023-04-07T09:30:15.022Z,98140.69
2023-04-07T09:32:39.288Z,98129.34
2023-04-07T09:34:44.597Z,98130.03
2023-04-07T09:36:51.115Z,98137.03
2023-04-07T09:38:55.996Z,98136.66
2023-04-07T09:41:08.711Z,98131.84
2023-04-07T09:43:21.619Z,98133.22
2023-04-07T09:45:35.218Z,98128.38
2023-04-07T09:47:41.205Z,98128.66
2023-04-07T09:49:54.816Z,98127.47
2023-04-07T09:52:05.173Z,98118.34
2023-04-07T09:54:12.982Z,98123.63
2023-04-07T09:56:19.622Z,98116.91
2023-04-07T09:58:28.280Z,98120.28
2023-04-07T10:00:33.317Z,98118.31
2023-04-07T10:02:38.554Z,98116.47
2023-04-07T10:04:46.576Z,98120.38
2023-04-07T10:06:51.822Z,98118.72
2023-04-07T10:08:56.796Z,98113.81
2023-04-07T10:11:03.796Z,98120.75
2023-04-07T10:13:09.652Z,98115.69
2023-04-07T10:15:18.750Z,98114.16
2023-04-07T10:17:25.072Z,98109.69
2023-04-07T10:19:34.311Z,98115.06
2023-04-07T10:21:45.392Z,98113.41
2023-04-07T10:24:02.609Z,98113.50
2023-04-07T10:26:10.765Z,98114.34
2023-04-07T10:28:17.452Z,98107.13
2023-04-07T10:30:29.046Z,98106.84
2023-04-07T10:32:34.100Z,98104.34
2023-04-07T10:35:03.159Z,98098.44
2023-04-07T10:37:13.707Z,98108.97
2023-04-07T10:39:25.302Z,98103.25
2023-04-07T10:41:37.726Z,98115.13
2023-04-07T10:43:45.261Z,98101.78
2023-04-07T10:46:02.426Z,98105.06
2023-04-07T10:48:16.678Z,98106.41
2023-04-07T10:50:23.912Z,98106.31
2023-04-07T10:52:28.979Z,98108.44
2023-04-07T10:54:33.904Z,98101.53
2023-04-07T10:57:10.372Z,98102.03
2023-04-07T10:59:19.589Z,98098.88
2023-04-07T11:01:27.737Z,98098.50
2023-04-07T11:03:42.543Z,98101.28
2023-04-07T11:05:47.496Z,98099.78
2023-04-07T11:08:03.032Z,98098.13
2023-04-07T11:10:16.093Z,98097.78
2023-04-07T11:12:31.377Z,98099.19
2023-04-07T11:14:37.843Z,98092.19
2023-04-07T11:16:46.650Z,98095.41
2023-04-07T11:18:52.989Z,98092.09
2023-04-07T11:20:59.440Z,98085.97
2023-04-07T11:23:04.397Z,98084.03
2023-04-07T11:25:27.857Z,98077.38
2023-04-07T11:27:33.044Z,98084.88
2023-04-07T11:29:38.931Z,98085.81
2023-04-07T11:31:51.701Z,98082.44
2023-04-07T11:33:57.740Z,98082.38
2023-04-07T11:36:04.182Z,98082.69
2023-04-07T11:38:09.335Z,98085.88
2023-04-07T11:40:17.139Z,98080.28
2023-04-07T11:42:34.803Z,98081.31
2023-04-07T11:44:48.396Z,98077.59
2023-04-07T11:47:02.331Z,98083.22
2023-04-07T11:49:15.065Z,98076.06
2023-04-07T11:51:21.257Z,98068.25
2023-04-07T11:53:30.449Z,98066.19
2023-04-07T11:55:35.632Z,98072.31
2023-04-07T11:57:40.620Z,98074.19
2023-04-07T11:59:45.626Z,98072.75
2023-04-07T12:01:50.558Z,98063.06
2023-04-07T12:04:04.427Z,98066.69
2023-04-07T12:06:10.298Z,98060.50
2023-04-07T12:08:16.840Z,98059.19
2023-04-07T12:10:26.831Z,98066.31
2023-04-07T12:12:33.504Z,98070.53
2023-04-07T12:14:39.297Z,98064.03
2023-04-07T12:16:44.306Z,98062.84
2023-04-07T12:18:49.447Z,98061.63
2023-04-07T12:20:57.909Z,98067.94
2023-04-07T12:23:02.898Z,98060.44
2023-04-07T12:25:08.206Z,98070.84
2023-04-07T12:27:13.210Z,98067.63
2023-04-07T12:29:20.250Z,98064.47
2023-04-07T12:31:25.704Z,98067.69
2023-04-07T12:33:40.626Z,98061.84
2023-04-07T12:35:45.611Z,98065.19
2023-04-07T12:37:53.778Z,98075.81
2023-04-07T12:39:59.016Z,98073.59
2023-04-07T12:42:03.645Z,98069.50
2023-04-07T12:44:08.854Z,98068.03
2023-04-07T12:46:14.139Z,98060.94
2023-04-07T12:48:21.768Z,98068.41
2023-04-07T12:50:27.116Z,98063.19
2023-04-07T12:52:32.705Z,98067.13
2023-04-07T12:54:40.761Z,98066.09
2023-04-07T12:56:46.245Z,98064.88
2023-04-07T12:58:51.418Z,98066.25
2023-04-07T13:00:56.931Z,98068.41
2023-04-07T13:03:03.644Z,98068.22
2023-04-07T13:05:09.321Z,98069.06
2023-04-07T13:07:14.219Z,98073.03
2023-04-07T13:09:19.100Z,98081.91
2023-04-07T13:11:26.771Z,98080.69
2023-04-07T13:13:32.097Z,98078.19
2023-04-07T13:15:37.185Z,98085.69
2023-04-07T13:17:42.573Z,98079.19
2023-04-07T13:19:48.067Z,98070.50
2023-04-07T13:21:53.306Z,98070.06
2023-04-07T13:23:58.778Z,98072.53
2023-04-07T13:26:03.831Z,98078.16
2023-04-07T13:28:11.623Z,98074.97
2023-04-07T13:30:17.657Z,98069.41
2023-04-07T13:32:23.890Z,98064.75
2023-04-07T13:34:29.387Z,98064.75
2023-04-07T13:36:36.963Z,98062.25
2023-04-07T13:38:42.632Z,98069.81
2023-04-07T13:40:49.861Z,98061.06
2023-04-07T13:42:54.878Z,98059.22
2023-04-07T13:45:02.474Z,98063.00
2023-04-07T13:47:07.877Z,98069.91
2023-04-07T13:49:12.900Z,98073.44
2023-04-07T13:51:17.850Z,98068.56
2023-04-07T13:53:23.294Z,98067.56
2023-04-07T13:55:28.300Z,98060.22
2023-04-07T13:57:33.232Z,98064.69
2023-04-07T13:59:38.399Z,98069.84
2023-04-07T14:01:45.975Z,98063.00
2023-04-07T14:03:51.537Z,98061.41
2023-04-07T14:06:00.797Z,98065.63
2023-04-07T14:08:05.920Z,98067.06
2023-04-07T14:10:10.950Z,98064.44
2023-04-07T14:12:15.978Z,98068.28
2023-04-07T14:14:21.080Z,98077.22
2023-04-07T14:16:26.008Z,98077.16
2023-04-07T14:18:33.701Z,98070.66
2023-04-07T14:20:38.633Z,98070.88
2023-04-07T14:22:43.796Z,98075.31
2023-04-07T14:24:48.645Z,98070.06
2023-04-07T14:26:54.835Z,98066.66
2023-04-07T14:28:59.740Z,98063.94
2023-04-07T14:31:07.537Z,98067.44
2023-04-07T14:33:13.096Z,98067.94
2023-04-07T14:35:20.968Z,98066.97
2023-04-07T14:37:28.751Z,98059.69
2023-04-07T14:39:33.825Z,98057.66
2023-04-07T14:41:38.867Z,98060.63
2023-04-07T14:43:44.029Z,98064.13
2023-04-07T14:45:48.923Z,98058.97
2023-04-07T14:47:54.052Z,98068.03
2023-04-07T14:49:59.055Z,98058.16
2023-04-07T14:52:06.664Z,98068.47
2023-04-07T14:54:11.536Z,98063.63
2023-04-07T14:56:16.497Z,98065.78
2023-04-07T14:58:23.295Z,98063.38
2023-04-07T15:00:29.030Z,98057.78
2023-04-07T15:02:34.250Z,98064.31
2023-04-07T15:04:39.402Z,98061.03
2023-04-07T15:06:47.219Z,98065.75
2023-04-07T15:08:54.907Z,98068.97
2023-04-07T15:10:59.842Z,98071.00
2023-04-07T15:13:05.643Z,98060.53
2023-04-07T15:15:11.331Z,98068.06
2023-04-07T15:17:16.321Z,98069.50
2023-04-07T15:19:21.221Z,98070.31
2023-04-07T15:21:27.042Z,98069.13
2023-04-07T15:23:32.203Z,98072.81
2023-04-07T15:25:39.514Z,98078.91
2023-04-07T15:27:44.392Z,98077.31
2023-04-07T15:29:49.364Z,98073.19
2023-04-07T15:31:54.366Z,98071.72
2023-04-07T15:33:59.336Z,98080.59
2023-04-07T15:36:04.253Z,98076.47
2023-04-07T15:38:09.272Z,98077.09
2023-04-07T15:40:14.981Z,98079.53
2023-04-07T15:42:22.523Z,98087.66
2023-04-07T15:44:27.501Z,98076.38
2023-04-07T15:46:32.563Z,98074.13
2023-04-07T15:48:37.682Z,98076.50
2023-04-07T15:50:42.767Z,98073.75
2023-04-07T15:52:47.960Z,98071.25
2023-04-07T15:54:53.301Z,98073.53
2023-04-07T15:56:58.197Z,98077.41
2023-04-07T15:59:05.989Z,98079.34
2023-04-07T16:01:11.449Z,98075.28
2023-04-07T16:03:16.673Z,98076.91
2023-04-07T16:05:22.016Z,98076.22
2023-04-07T16:07:26.885Z,98075.53
2023-04-07T16:09:31.762Z,98076.59
2023-04-07T16:11:36.736Z,98077.28
2023-04-07T16:13:41.644Z,98073.72
2023-04-07T16:15:49.286Z,98083.53
2023-04-07T16:17:54.211Z,98081.75
2023-04-07T16:19:59.183Z,98075.53
2023-04-07T16:22:04.087Z,98085.13
2023-04-07T16:24:09.198Z,98083.63
2023-04-07T16:26:14.627Z,98084.34
2023-04-07T16:28:19.558Z,98081.72
2023-04-07T16:30:25.493Z,98080.13
2023-04-07T16:32:33.077Z,98082.81
2023-04-07T16:34:38.259Z,98085.00
2023-04-07T16:36:43.476Z,98087.31
2023-04-07T16:38:48.915Z,98083.56
2023-04-07T16:41:03.458Z,98082.31
2023-04-07T16:43:09.307Z,98092.16
2023-04-07T16:45:14.570Z,98091.41
2023-04-07T16:47:19.319Z,98091.91
2023-04-07T16:49:26.913Z,98099.41
2023-04-07T16:51:32.063Z,98098.84
2023-04-07T16:53:38.759Z,98105.00
2023-04-07T16:55:43.670Z,98108.56
2023-04-07T16:57:49.291Z,98106.03
2023-04-07T16:59:54.163Z,98107.78
2023-04-07T17:01:59.143Z,98111.78
2023-04-07T17:04:04.331Z,98109.34
2023-04-07T17:06:12.109Z,98117.13
2023-04-07T17:08:17.068Z,98115.72
2023-04-07T17:10:22.059Z,98123.66
2023-04-07T17:12:26.949Z,98121.09
2023-04-07T17:14:33.708Z,98122.34
2023-04-07T17:16:38.570Z,98119.91
2023-04-07T17:18:43.599Z,98121.06
2023-04-07T17:20:48.871Z,98126.66
2023-04-07T17:22:56.219Z,98130.19
2023-04-07T17:25:01.185Z,98130.81
2023-04-07T17:27:06.333Z,98131.50
2023-04-07T17:29:11.312Z,98132.66
2023-04-07T17:31:16.529Z,98137.97
2023-04-07T17:33:21.170Z,98143.41
2023-04-07T17:35:26.231Z,98144.41
2023-04-07T17:37:31.170Z,98141.88
2023-04-07T17:39:38.735Z,98145.53
2023-04-07T17:41:43.649Z,98150.13
2023-04-07T17:43:48.720Z,98149.44
2023-04-07T17:45:53.860Z,98154.13
2023-04-07T17:47:58.844Z,98156.66
2023-04-07T17:50:04.715Z,98157.66
2023-04-07T17:52:09.681Z,98160.19
2023-04-07T17:54:14.599Z,98160.25
2023-04-07T17:56:22.308Z,98160.34
2023-04-07T17:58:27.213Z,98169.22
2023-04-07T18:00:32.417Z,98164.34
2023-04-07T18:02:37.730Z,98170.72
2023-04-07T18:04:45.833Z,98175.38
2023-04-07T18:06:51.243Z,98166.78
2023-04-07T18:08:56.680Z,98175.69
2023-04-07T18:11:01.823Z,98181.78
2023-04-07T18:13:09.463Z,98182.72
2023-04-07T18:15:15.951Z,98179.28
2023-04-07T18:17:20.962Z,98185.53
2023-04-07T18:19:25.976Z,98188.22
2023-04-07T18:21:31.644Z,98193.59
2023-04-07T18:23:36.955Z,98193.59
2023-04-07T18:25:41.913Z,98190.97
2023-04-07T18:27:46.948Z,98193.78
2023-04-07T18:29:54.356Z,98189.78
2023-04-07T18:31:59.265Z,98195.97
2023-04-07T18:34:04.588Z,98201.38
2023-04-07T18:36:13.818Z,98204.06
2023-04-07T18:38:19.006Z,98214.69
2023-04-07T18:40:23.934Z,98206.31
2023-04-07T18:42:29.103Z,98209.19
2023-04-07T18:44:34.024Z,98213.56
2023-04-07T18:46:41.702Z,98212.78
2023-04-07T18:48:46.758Z,98218.88
2023-04-07T18:50:55.300Z,98219.13
2023-04-07T18:53:00.214Z,98224.47
2023-04-07T18:55:05.101Z,98226.22
2023-04-07T18:57:10.022Z,98226.50
2023-04-07T18:59:14.984Z,98231.84
2023-04-07T19:01:20.181Z,98241.47
2023-04-07T19:03:27.987Z,98240.69
2023-04-07T19:05:32.977Z,98248.63
2023-04-07T19:07:37.936Z,98251.22
2023-04-07T19:09:42.878Z,98248.63
2023-04-07T19:11:47.806Z,98247.41
2023-04-07T19:13:53.515Z,98251.75
2023-04-07T19:15:58.581Z,98249.03
2023-04-07T19:18:04.779Z,98252.66
2023-04-07T19:20:13.153Z,98256.38
2023-04-07T19:22:18.100Z,98262.81
2023-04-07T19:24:23.074Z,98260.28
2023-04-07T19:26:29.629Z,98260.44
2023-04-07T19:28:34.807Z,98266.03
2023-04-07T19:30:39.733Z,98273.84
2023-04-07T19:32:44.921Z,98266.03
2023-04-07T19:34:49.568Z,98275.69
2023-04-07T19:36:57.482Z,98272.28
2023-04-07T19:39:03.578Z,98278.47
2023-04-07T19:41:08.596Z,98272.44
2023-04-07T19:43:14.390Z,98278.50
2023-04-07T19:45:19.448Z,98271.66
2023-04-07T19:47:24.443Z,98279.59
2023-04-07T19:49:29.504Z,98283.16
2023-04-07T19:51:35.479Z,98285.81
2023-04-07T19:53:42.986Z,98284.06
2023-04-07T19:55:49.257Z,98286.78
2023-04-07T19:57:54.134Z,98286.06
2023-04-07T19:59:59.027Z,98288.06
2023-04-07T20:02:04.061Z,98284.50
2023-04-07T20:04:09.157Z,98288.84
2023-04-07T20:06:15.351Z,98299.22
2023-04-07T20:08:20.260Z,98296.13
2023-04-07T20:10:27.766Z,98302.28
2023-04-07T20:12:34.611Z,98296.22
2023-04-07T20:14:39.577Z,98299.00
2023-04-07T20:16:44.524Z,98314.84
2023-04-07T20:18:49.507Z,98307.16
2023-04-07T20:21:01.528Z,98304.00
2023-04-07T20:23:06.469Z,98308.50
2023-04-07T20:25:11.545Z,98303.78
2023-04-07T20:27:19.082Z,98309.81
2023-04-07T20:29:23.983Z,98308.06
2023-04-07T20:31:29.091Z,98306.44
2023-04-07T20:33:34.015Z,98309.94
2023-04-07T20:35:39.105Z,98311.72
2023-04-07T20:37:44.780Z,98311.91
2023-04-07T20:39:49.681Z,98299.09
2023-04-07T20:41:54.535Z,98306.41
2023-04-07T20:44:02.179Z,98305.00
2023-04-07T20:46:07.127Z,98315.38
2023-04-07T20:48:13.336Z,98311.22
2023-04-07T20:50:18.481Z,98316.41
2023-04-07T20:52:23.237Z,98313.81
2023-04-07T20:54:30.020Z,98319.84
2023-04-07T20:56:35.061Z,98312.13
2023-04-07T20:58:40.033Z,98317.25
2023-04-07T21:00:47.736Z,98320.03
2023-04-07T21:02:52.864Z,98325.38
2023-04-07T21:04:58.146Z,98329.88
2023-04-07T21:07:03.404Z,98324.97
2023-04-07T21:09:14.055Z,98326.63
2023-04-07T21:11:19.129Z,98329.22
2023-04-07T21:13:26.465Z,98323.63
2023-04-07T21:15:31.633Z,98324.34
2023-04-07T21:17:38.959Z,98333.97
2023-04-07T21:19:44.099Z,98331.31
2023-04-07T21:21:49.003Z,98330.41
2023-04-07T21:23:53.901Z,98336.50
2023-04-07T21:26:02.990Z,98332.06
2023-04-07T21:28:10.656Z,98334.56
2023-04-07T21:30:16.870Z,98337.69
2023-04-07T21:32:22.314Z,98342.75
2023-04-07T21:34:32.717Z,98339.00
2023-04-07T21:36:37.540Z,98346.53
2023-04-07T21:38:42.630Z,98340.16
2023-04-07T21:40:47.506Z,98344.34
2023-04-07T21:42:52.497Z,98342.41
2023-04-07T21:44:57.355Z,98343.16
2023-04-07T21:47:02.689Z,98339.91
2023-04-07T21:49:08.034Z,98344.66
2023-04-07T21:51:15.628Z,98343.91
2023-04-07T21:53:20.551Z,98345.50
2023-04-07T21:55:25.531Z,98343.69
2023-04-07T21:57:30.907Z,98343.91
2023-04-07T21:59:36.217Z,98351.13
2023-04-07T22:01:40.889Z,98356.34
2023-04-07T22:03:46.135Z,98353.88
2023-04-07T22:05:51.236Z,98349.38
2023-04-07T22:07:58.765Z,98356.09
2023-04-07T22:10:06.348Z,98354.22
2023-04-07T22:12:11.309Z,98346.31
2023-04-07T22:14:24.866Z,98349.13
2023-04-07T22:16:30.027Z,98350.09
2023-04-07T22:18:35.113Z,98353.44
2023-04-07T22:20:41.694Z,98350.72
2023-04-07T22:22:46.905Z,98347.16
2023-04-07T22:24:54.455Z,98354.81
2023-04-07T22:26:59.280Z,98353.84
2023-04-07T22:29:04.168Z,98356.38
2023-04-07T22:31:09.141Z,98351.16
2023-04-07T22:33:14.215Z,98349.41
2023-04-07T22:35:19.440Z,98351.94
2023-04-07T22:37:24.229Z,98358.84
2023-04-07T22:39:29.401Z,98361.47
2023-04-07T22:41:36.660Z,98363.31
2023-04-07T22:43:41.590Z,98361.63
2023-04-07T22:45:46.884Z,98365.94
2023-04-07T22:47:51.831Z,98362.41
2023-04-07T22:49:56.796Z,98363.28
2023-04-07T22:52:01.857Z,98364.13
2023-04-07T22:54:07.013Z,98365.00
2023-04-07T22:56:11.904Z,98368.47
2023-04-07T22:58:19.419Z,98365.94
2023-04-07T23:00:24.512Z,98370.66
2023-04-07T23:02:29.686Z,98364.00
2023-04-07T23:04:34.407Z,98372.84
2023-04-07T23:06:40.773Z,98368.72
2023-04-07T23:08:45.816Z,98374.34
2023-04-07T23:10:50.791Z,98368.72
2023-04-07T23:12:56.590Z,98373.28
2023-04-07T23:15:04.139Z,98382.97
2023-04-07T23:17:09.185Z,98376.22
2023-04-07T23:19:15.906Z,98383.25
2023-04-07T23:21:20.996Z,98384.81
2023-04-07T23:23:26.029Z,98382.28
2023-04-07T23:25:30.993Z,98384.72
2023-04-07T23:27:36.842Z,98381.19
2023-04-07T23:29:41.697Z,98378.53
2023-04-07T23:31:50.054Z,98381.06
2023-04-07T23:33:54.954Z,98390.75
2023-04-07T23:35:59.930Z,98384.81
2023-04-07T23:38:04.967Z,98389.22
2023-04-07T23:40:11.600Z,98389.88
2023-04-07T23:42:17.704Z,98391.47
2023-04-07T23:44:23.534Z,98387.91
2023-04-07T23:46:28.461Z,98389.88
2023-04-07T23:48:36.488Z,98384.63
2023-04-07T23:50:41.616Z,98384.47
2023-04-07T23:52:47.159Z,98386.13
2023-04-07T23:54:52.063Z,98385.94
2023-04-07T23:56:57.320Z,98382.38
2023-04-07T23:59:01.985Z,98380.53
